createdAt,value
2018-06-13T00:00:34.551Z,4.30
2018-06-13T00:03:03.766Z,4.83
2018-06-13T00:05:32.196Z,4.67
2018-06-13T00:08:00.900Z,4.77
2018-06-13T00:10:30.148Z,4.70
2018-06-13T00:12:58.636Z,4.57
2018-06-13T00:15:27.260Z,4.30
2018-06-13T00:17:56.197Z,4.20
2018-06-13T00:20:25.559Z,4.43
2018-06-13T00:22:54.213Z,4.23
2018-06-13T00:25:23.153Z,4.30
2018-06-13T00:27:51.612Z,4.60
2018-06-13T00:30:20.304Z,4.27
2018-06-13T00:32:48.932Z,4.53
2018-06-13T00:35:17.907Z,4.60
2018-06-13T00:37:46.391Z,4.33
2018-06-13T00:40:15.045Z,4.37
2018-06-13T00:42:43.778Z,4.33
2018-06-13T00:45:12.368Z,3.93
2018-06-13T00:47:41.002Z,4.97
2018-06-13T00:50:09.665Z,4.40
2018-06-13T00:52:38.135Z,4.13
2018-06-13T00:55:06.505Z,4.40
2018-06-13T00:57:35.015Z,4.73
2018-06-13T01:00:03.827Z,4.20
2018-06-13T01:02:32.260Z,4.20
2018-06-13T01:05:00.996Z,4.07
2018-06-13T01:07:29.757Z,4.17
2018-06-13T01:09:58.628Z,4.53
2018-06-13T01:12:26.972Z,4.20
2018-06-13T01:14:55.702Z,4.43
2018-06-13T01:17:24.161Z,4.70
2018-06-13T01:19:53.067Z,4.20
2018-06-13T01:22:21.493Z,4.37
2018-06-13T01:24:50.440Z,4.27
2018-06-13T01:27:19.220Z,4.70
2018-06-13T01:29:47.856Z,4.40
2018-06-13T01:32:16.497Z,3.93
2018-06-13T01:34:44.880Z,4.07
2018-06-13T01:37:13.214Z,4.30
2018-06-13T01:39:41.732Z,4.60
2018-06-13T01:42:10.111Z,3.90
2018-06-13T01:44:38.759Z,4.13
2018-06-13T01:47:07.420Z,4.20
2018-06-13T01:49:36.104Z,4.53
2018-06-13T01:52:07.908Z,4.30
2018-06-13T01:54:36.640Z,4.60
2018-06-13T01:57:05.006Z,4.50
2018-06-13T01:59:33.952Z,4.70
2018-06-13T02:02:02.292Z,4.50
2018-06-13T02:04:30.728Z,4.60
2018-06-13T02:06:59.500Z,4.50
2018-06-13T02:09:28.136Z,4.57
2018-06-13T02:11:56.834Z,4.10
2018-06-13T02:14:25.439Z,4.33
2018-06-13T02:16:54.116Z,4.43
2018-06-13T02:19:23.108Z,4.50
2018-06-13T02:21:51.827Z,3.90
2018-06-13T02:24:20.547Z,4.67
2018-06-13T02:26:49.220Z,4.43
2018-06-13T02:29:17.616Z,4.17
2018-06-13T02:31:46.824Z,4.03
2018-06-13T02:34:16.144Z,4.73
2018-06-13T02:36:44.488Z,4.33
2018-06-13T02:39:12.828Z,4.50
2018-06-13T02:41:41.597Z,4.80
2018-06-13T02:44:10.284Z,4.33
2018-06-13T02:46:38.584Z,4.90
2018-06-13T02:49:07.295Z,4.73
2018-06-13T02:51:36.100Z,4.63
2018-06-13T02:54:04.480Z,4.80
2018-06-13T02:56:32.805Z,4.93
2018-06-13T02:59:01.246Z,4.70
2018-06-13T03:01:30.014Z,4.67
2018-06-13T03:03:58.817Z,4.40
2018-06-13T03:06:27.317Z,4.67
2018-06-13T03:08:56.603Z,4.80
2018-06-13T03:11:25.192Z,4.73
2018-06-13T03:13:54.160Z,4.87
2018-06-13T03:16:22.597Z,5.00
2018-06-13T03:18:50.900Z,5.10
2018-06-13T03:21:19.717Z,5.17
2018-06-13T03:23:48.065Z,5.27
2018-06-13T03:26:16.816Z,5.20
2018-06-13T03:28:45.128Z,4.70
2018-06-13T03:31:13.796Z,5.13
2018-06-13T03:33:42.489Z,4.73
2018-06-13T03:36:11.136Z,4.97
2018-06-13T03:38:39.819Z,5.17
2018-06-13T03:41:08.155Z,4.53
2018-06-13T03:43:36.434Z,4.83
2018-06-13T03:46:05.293Z,5.40
2018-06-13T03:48:34.261Z,4.63
2018-06-13T03:51:02.788Z,4.80
2018-06-13T03:53:31.453Z,5.43
2018-06-13T03:56:00.137Z,5.00
2018-06-13T03:58:28.720Z,5.10
2018-06-13T04:00:57.392Z,5.40
2018-06-13T04:03:26.384Z,5.60
2018-06-13T04:05:55.080Z,5.00
2018-06-13T04:08:23.572Z,5.20
2018-06-13T04:10:52.249Z,4.70
2018-06-13T04:13:20.996Z,4.97
2018-06-13T04:15:49.892Z,4.87
2018-06-13T04:18:18.856Z,5.37
2018-06-13T04:20:47.280Z,4.80
2018-06-13T04:23:15.961Z,5.00
2018-06-13T04:25:44.594Z,5.03
2018-06-13T04:28:13.332Z,5.00
2018-06-13T04:30:42.240Z,5.50
2018-06-13T04:33:10.752Z,5.43
2018-06-13T04:35:39.329Z,5.20
2018-06-13T04:38:08.069Z,4.70
2018-06-13T04:40:36.720Z,4.83
2018-06-13T04:43:05.400Z,5.37
2018-06-13T04:45:34.426Z,4.80
2018-06-13T04:48:03.153Z,4.63
2018-06-13T04:50:31.774Z,5.10
2018-06-13T04:53:00.449Z,5.03
2018-06-13T04:55:29.208Z,4.80
2018-06-13T04:57:57.913Z,5.33
2018-06-13T05:00:26.253Z,4.90
2018-06-13T05:02:54.965Z,5.10
2018-06-13T05:05:23.544Z,5.37
2018-06-13T05:07:52.046Z,5.03
2018-06-13T05:10:20.717Z,5.07
2018-06-13T05:12:49.420Z,4.80
2018-06-13T05:15:18.097Z,4.67
2018-06-13T05:17:46.441Z,5.13
2018-06-13T05:20:15.147Z,4.70
2018-06-13T05:22:43.833Z,5.23
2018-06-13T05:25:12.795Z,4.43
2018-06-13T05:27:41.452Z,4.80
2018-06-13T05:30:10.121Z,5.23
2018-06-13T05:32:39.155Z,5.17
2018-06-13T05:35:07.824Z,5.13
2018-06-13T05:37:36.500Z,4.80
2018-06-13T05:40:05.213Z,5.37
2018-06-13T05:42:33.852Z,4.97
2018-06-13T05:45:03.229Z,6.10
2018-06-13T05:47:31.881Z,4.67
2018-06-13T05:50:00.836Z,4.73
2018-06-13T05:52:29.561Z,4.67
2018-06-13T05:54:58.512Z,4.40
2018-06-13T05:57:26.940Z,4.77
2018-06-13T05:59:55.708Z,4.93
2018-06-13T06:02:24.663Z,4.90
2018-06-13T06:04:53.379Z,4.40
2018-06-13T06:07:21.996Z,4.87
2018-06-13T06:09:50.325Z,4.80
2018-06-13T06:12:18.736Z,5.07
2018-06-13T06:14:47.473Z,5.00
2018-06-13T06:17:16.157Z,5.33
2018-06-13T06:19:44.539Z,4.90
2018-06-13T06:22:13.760Z,5.43
2018-06-13T06:24:42.594Z,5.30
2018-06-13T06:27:11.136Z,4.93
2018-06-13T06:29:39.484Z,5.50
2018-06-13T06:32:08.300Z,5.37
2018-06-13T06:34:36.955Z,5.47
2018-06-13T06:37:06.050Z,5.53
2018-06-13T06:39:34.648Z,5.37
2018-06-13T06:42:03.011Z,5.33
2018-06-13T06:44:31.757Z,5.10
2018-06-13T06:47:00.597Z,5.43
2018-06-13T06:49:29.092Z,4.90
2018-06-13T06:51:57.693Z,5.67
2018-06-13T06:54:26.148Z,4.80
2018-06-13T06:56:54.785Z,5.77
2018-06-13T06:59:23.509Z,5.53
2018-06-13T07:01:52.216Z,5.70
2018-06-13T07:04:20.848Z,4.93
2018-06-13T07:06:49.539Z,5.17
2018-06-13T07:09:18.491Z,5.60
2018-06-13T07:11:46.904Z,5.40
2018-06-13T07:14:15.263Z,5.40
2018-06-13T07:16:44.057Z,5.20
2018-06-13T07:19:12.743Z,5.73
2018-06-13T07:21:41.629Z,5.93
2018-06-13T07:24:10.004Z,5.60
2018-06-13T07:26:38.472Z,5.27
2018-06-13T07:29:07.138Z,5.03
2018-06-13T07:31:35.804Z,5.43
2018-06-13T07:34:04.453Z,5.30
2018-06-13T07:36:32.848Z,5.83
2018-06-13T07:39:01.865Z,5.80
2018-06-13T07:41:30.521Z,6.17
2018-06-13T07:43:59.240Z,5.50
2018-06-13T07:46:28.000Z,5.77
2018-06-13T07:48:56.661Z,5.77
2018-06-13T07:51:25.600Z,5.53
2018-06-13T07:53:54.244Z,5.37
2018-06-13T07:56:22.620Z,5.93
2018-06-13T07:58:51.067Z,5.80
2018-06-13T08:01:20.041Z,5.43
2018-06-13T08:03:48.657Z,6.27
2018-06-13T08:06:17.541Z,5.77
2018-06-13T08:08:46.475Z,4.77
2018-06-13T08:11:15.389Z,5.20
2018-06-13T08:13:44.152Z,6.07
2018-06-13T08:16:12.736Z,6.37
2018-06-13T08:18:41.136Z,5.60
2018-06-13T08:21:09.787Z,5.77
2018-06-13T08:23:38.196Z,5.30
2018-06-13T08:26:06.952Z,5.43
2018-06-13T08:28:35.881Z,5.50
2018-06-13T08:31:04.569Z,5.80
2018-06-13T08:33:33.601Z,5.27
2018-06-13T08:36:02.230Z,5.07
2018-06-13T08:38:30.620Z,5.20
2018-06-13T08:40:59.377Z,5.67
2018-06-13T08:43:28.316Z,5.40
2018-06-13T08:45:57.024Z,5.87
2018-06-13T08:48:25.768Z,6.50
2018-06-13T08:50:54.352Z,6.13
2018-06-13T08:53:23.516Z,6.83
2018-06-13T08:55:52.396Z,6.60
2018-06-13T08:58:21.017Z,6.50
2018-06-13T09:00:49.468Z,6.10
2018-06-13T09:03:18.729Z,5.57
2018-06-13T09:05:47.665Z,6.53
2018-06-13T09:08:16.189Z,5.90
2018-06-13T09:10:44.804Z,6.50
2018-06-13T09:13:13.436Z,5.97
2018-06-13T09:15:42.165Z,6.33
2018-06-13T09:18:11.212Z,6.37
2018-06-13T09:20:40.697Z,5.83
2018-06-13T09:23:09.403Z,6.40
2018-06-13T09:25:37.840Z,5.90
2018-06-13T09:28:06.906Z,6.07
2018-06-13T09:30:35.784Z,5.90
2018-06-13T09:33:04.256Z,6.23
2018-06-13T09:35:33.168Z,5.43
2018-06-13T09:38:01.634Z,4.90
2018-06-13T09:40:30.553Z,5.20
2018-06-13T09:42:59.303Z,4.90
2018-06-13T09:45:28.021Z,5.10
2018-06-13T09:47:56.644Z,5.17
2018-06-13T09:50:25.996Z,4.67
2018-06-13T09:52:54.613Z,5.00
2018-06-13T09:55:23.371Z,4.70
2018-06-13T09:57:52.071Z,4.67
2018-06-13T10:00:25.803Z,5.17
2018-06-13T10:02:54.365Z,4.60
2018-06-13T10:05:22.939Z,5.10
2018-06-13T10:07:51.362Z,4.70
2018-06-13T10:10:20.001Z,4.80
2018-06-13T10:12:48.461Z,4.53
2018-06-13T10:15:17.141Z,4.60
2018-06-13T10:17:46.452Z,4.30
2018-06-13T10:20:15.163Z,4.30
2018-06-13T10:22:43.824Z,4.87
2018-06-13T10:25:12.460Z,4.20
2018-06-13T10:28:43.707Z,4.87
2018-06-13T10:31:12.254Z,3.83
2018-06-13T10:33:40.931Z,3.93
2018-06-13T10:36:09.537Z,4.60
2018-06-13T10:38:38.049Z,4.07
2018-06-13T10:41:07.023Z,3.50
2018-06-13T10:43:35.629Z,3.80
2018-06-13T10:46:04.712Z,3.57
2018-06-13T10:48:33.342Z,3.83
2018-06-13T10:51:01.988Z,3.63
2018-06-13T10:53:30.946Z,3.27
2018-06-13T10:55:59.444Z,3.83
2018-06-13T10:58:28.025Z,3.50
2018-06-13T11:00:56.408Z,3.50
2018-06-13T11:03:25.753Z,3.30
2018-06-13T11:05:54.486Z,3.57
2018-06-13T11:08:23.080Z,3.70
2018-06-13T11:10:51.547Z,3.57
2018-06-13T11:13:20.516Z,3.87
2018-06-13T11:15:49.467Z,3.30
2018-06-13T11:18:18.152Z,3.40
2018-06-13T11:20:47.164Z,2.97
2018-06-13T11:23:15.580Z,3.13
2018-06-13T11:25:44.240Z,3.00
2018-06-13T11:28:12.985Z,3.10
2018-06-13T11:30:41.724Z,2.93
2018-06-13T11:33:10.592Z,2.80
2018-06-13T11:35:39.302Z,2.90
2018-06-13T11:38:08.137Z,3.20
2018-06-13T11:40:36.649Z,3.60
2018-06-13T11:43:05.305Z,3.30
2018-06-13T11:45:33.996Z,3.30
2018-06-13T11:48:03.015Z,3.00
2018-06-13T11:50:31.676Z,2.83
2018-06-13T11:53:00.136Z,3.10
2018-06-13T11:55:28.770Z,3.40
2018-06-13T11:57:57.828Z,3.10
2018-06-13T12:00:26.562Z,3.10
2018-06-13T12:02:55.197Z,3.50
2018-06-13T12:05:24.124Z,3.30
2018-06-13T12:07:53.628Z,3.13
2018-06-13T12:10:22.445Z,3.17
2018-06-13T12:12:51.207Z,3.00
2018-06-13T12:15:20.108Z,3.30
2018-06-13T12:17:48.860Z,3.27
2018-06-13T12:20:17.544Z,3.40
2018-06-13T12:22:46.537Z,3.33
2018-06-13T12:25:15.533Z,3.13
2018-06-13T12:27:44.209Z,3.33
2018-06-13T12:30:12.948Z,3.40
2018-06-13T12:32:41.522Z,2.93
2018-06-13T12:35:10.157Z,3.20
2018-06-13T12:37:38.613Z,3.23
2018-06-13T12:40:07.000Z,3.00
2018-06-13T12:42:35.713Z,4.03
2018-06-13T12:45:04.041Z,3.23
2018-06-13T12:47:32.973Z,3.30
2018-06-13T12:50:01.737Z,3.60
2018-06-13T12:52:30.460Z,3.20
2018-06-13T12:54:59.143Z,2.97
2018-06-13T12:57:27.618Z,3.40
2018-06-13T12:59:56.248Z,3.40
2018-06-13T13:02:24.978Z,3.60
2018-06-13T13:04:53.818Z,3.60
2018-06-13T13:07:22.224Z,3.67
2018-06-13T13:09:50.912Z,3.53
2018-06-13T13:12:19.589Z,3.70
2018-06-13T13:14:48.636Z,3.53
2018-06-13T13:17:17.600Z,3.97
2018-06-13T13:19:45.901Z,3.40
2018-06-13T13:22:14.676Z,3.57
2018-06-13T13:24:43.934Z,4.30
2018-06-13T13:27:12.357Z,3.67
2018-06-13T13:29:41.386Z,4.00
2018-06-13T13:32:09.696Z,3.57
2018-06-13T13:34:38.132Z,3.83
2018-06-13T13:37:06.858Z,3.90
2018-06-13T13:39:35.492Z,3.97
2018-06-13T13:42:03.832Z,3.60
2018-06-13T13:44:32.584Z,3.50
2018-06-13T13:47:01.222Z,4.10
2018-06-13T13:49:29.660Z,3.80
2018-06-13T13:51:57.992Z,3.83
2018-06-13T13:54:26.675Z,3.73
2018-06-13T13:56:55.411Z,4.07
2018-06-13T13:59:24.093Z,4.00
2018-06-13T14:01:52.633Z,4.40
2018-06-13T14:04:21.098Z,4.20
2018-06-13T14:06:49.445Z,4.33
2018-06-13T14:09:17.833Z,4.33
2018-06-13T14:11:46.792Z,4.40
2018-06-13T14:14:15.598Z,3.93
2018-06-13T14:16:43.976Z,4.40
2018-06-13T14:19:12.466Z,4.27
2018-06-13T14:21:41.192Z,4.50
2018-06-13T14:24:09.649Z,4.63
2018-06-13T14:26:38.097Z,4.23
2018-06-13T14:29:06.723Z,4.17
2018-06-13T14:31:35.794Z,4.00
2018-06-13T14:34:04.484Z,4.47
2018-06-13T14:36:33.321Z,4.53
2018-06-13T14:39:02.109Z,4.17
2018-06-13T14:41:31.154Z,4.50
2018-06-13T14:43:59.760Z,4.47
2018-06-13T14:46:28.076Z,4.47
2018-06-13T14:48:56.393Z,4.57
2018-06-13T14:51:24.877Z,4.17
2018-06-13T14:53:55.722Z,4.20
2018-06-13T14:56:27.292Z,4.47
2018-06-13T14:58:56.417Z,4.83
2018-06-13T15:01:26.361Z,4.10
2018-06-13T15:03:55.989Z,4.33
2018-06-13T15:06:25.341Z,4.67
2018-06-13T15:08:54.613Z,4.30
2018-06-13T15:11:23.364Z,4.17
2018-06-13T15:13:52.328Z,4.17
2018-06-13T15:16:20.985Z,4.23
2018-06-13T15:18:50.173Z,4.57
2018-06-13T15:21:18.688Z,4.30
2018-06-13T15:23:47.790Z,4.57
2018-06-13T15:26:16.700Z,4.43
2018-06-13T15:28:45.389Z,4.13
2018-06-13T15:31:14.109Z,4.87
2018-06-13T15:33:42.449Z,4.77
2018-06-13T15:36:10.782Z,4.63
2018-06-13T15:38:40.317Z,4.50
2018-06-13T15:41:08.867Z,4.57
2018-06-13T15:43:37.531Z,4.50
2018-06-13T15:46:06.588Z,4.60
2018-06-13T15:48:35.233Z,4.37
2018-06-13T15:51:04.493Z,4.50
2018-06-13T15:53:33.204Z,4.53
2018-06-13T15:56:02.145Z,4.40
2018-06-13T15:58:31.220Z,3.77
2018-06-13T16:00:59.832Z,4.53
2018-06-13T16:03:28.573Z,5.07
2018-06-13T16:05:57.165Z,4.77
2018-06-13T16:08:25.592Z,4.67
2018-06-13T16:10:54.287Z,4.77
2018-06-13T16:13:23.036Z,5.07
2018-06-13T16:15:51.585Z,4.97
2018-06-13T16:18:20.568Z,5.33
2018-06-13T16:20:49.072Z,4.17
2018-06-13T16:23:17.677Z,4.80
2018-06-13T16:25:46.377Z,4.33
2018-06-13T16:28:14.804Z,4.50
2018-06-13T16:30:43.765Z,4.33
2018-06-13T16:33:13.341Z,4.37
2018-06-13T16:35:42.060Z,4.40
2018-06-13T16:38:10.804Z,4.73
2018-06-13T16:40:39.801Z,4.87
2018-06-13T16:43:08.568Z,4.90
2018-06-13T16:45:37.488Z,5.10
2018-06-13T16:48:05.959Z,4.50
2018-06-13T16:50:39.613Z,4.20
2018-06-13T16:53:09.832Z,5.03
2018-06-13T16:55:38.160Z,4.80
2018-06-13T16:58:07.143Z,4.60
2018-06-13T17:00:35.453Z,4.43
2018-06-13T17:03:03.801Z,4.53
2018-06-13T17:05:32.405Z,4.33
2018-06-13T17:08:00.768Z,4.47
2018-06-13T17:10:29.128Z,4.60
2018-06-13T17:12:57.456Z,5.00
2018-06-13T17:15:25.781Z,4.73
2018-06-13T17:17:54.273Z,5.60
2018-06-13T17:20:22.600Z,4.97
2018-06-13T17:22:51.024Z,4.97
2018-06-13T17:25:19.348Z,5.17
2018-06-13T17:27:48.333Z,5.27
2018-06-13T17:30:16.753Z,4.70
2018-06-13T17:32:45.207Z,5.00
2018-06-13T17:35:13.892Z,4.97
2018-06-13T17:37:42.265Z,4.63
2018-06-13T17:40:10.588Z,5.20
2018-06-13T17:42:39.297Z,4.77
2018-06-13T17:45:07.704Z,5.23
2018-06-13T17:47:36.721Z,5.47
2018-06-13T17:50:05.068Z,5.43
2018-06-13T17:52:33.445Z,5.87
2018-06-13T17:55:01.890Z,5.53
2018-06-13T17:57:30.390Z,5.97
2018-06-13T17:59:58.693Z,6.03
2018-06-13T18:02:27.398Z,5.33
2018-06-13T18:04:55.934Z,5.23
2018-06-13T18:07:24.641Z,5.20
2018-06-13T18:09:53.425Z,4.90
2018-06-13T18:12:22.137Z,5.33
2018-06-13T18:14:50.473Z,5.43
2018-06-13T18:17:18.777Z,4.97
2018-06-13T18:19:47.496Z,5.43
2018-06-13T18:22:16.249Z,5.30
2018-06-13T18:24:45.472Z,5.40
2018-06-13T18:27:13.800Z,5.37
2018-06-13T18:29:42.137Z,5.37
2018-06-13T18:32:10.447Z,5.47
2018-06-13T18:34:38.797Z,5.30
2018-06-13T18:37:07.125Z,5.10
2018-06-13T18:39:35.571Z,4.97
2018-06-13T18:42:04.228Z,5.40
2018-06-13T18:44:32.568Z,5.27
2018-06-13T18:47:01.180Z,5.27
2018-06-13T18:49:29.517Z,5.30
2018-06-13T18:51:57.904Z,5.20
2018-06-13T18:54:26.285Z,5.20
2018-06-13T18:56:54.789Z,5.93
2018-06-13T18:59:23.196Z,5.47
2018-06-13T19:01:51.731Z,5.67
2018-06-13T19:04:20.233Z,5.87
2018-06-13T19:06:48.800Z,5.50
2018-06-13T19:09:17.191Z,5.57
2018-06-13T19:11:45.910Z,5.10
2018-06-13T19:14:14.236Z,5.33
2018-06-13T19:16:42.959Z,5.80
2018-06-13T19:19:11.327Z,5.77
2018-06-13T19:21:39.940Z,5.73
2018-06-13T19:24:08.425Z,5.77
2018-06-13T19:26:37.144Z,6.17
2018-06-13T19:29:05.459Z,5.73
2018-06-13T19:31:33.801Z,5.60
2018-06-13T19:34:02.236Z,5.83
2018-06-13T19:36:30.884Z,5.80
2018-06-13T19:38:59.249Z,5.73
2018-06-13T19:41:27.564Z,5.97
2018-06-13T19:43:55.933Z,6.23
2018-06-13T19:46:24.457Z,5.90
2018-06-13T19:48:54.329Z,6.00
2018-06-13T19:51:23.050Z,6.07
2018-06-13T19:53:56.748Z,5.97
2018-06-13T19:56:27.192Z,6.10
2018-06-13T19:58:55.545Z,6.30
2018-06-13T20:01:23.976Z,6.00
2018-06-13T20:03:57.515Z,5.93
2018-06-13T20:06:25.897Z,6.27
2018-06-13T20:08:54.222Z,6.10
2018-06-13T20:11:22.732Z,5.77
2018-06-13T20:13:56.582Z,6.00
2018-06-13T20:16:35.740Z,6.30
2018-06-13T20:19:09.228Z,6.27
2018-06-13T20:21:37.690Z,6.27
2018-06-13T20:24:06.468Z,5.80
2018-06-13T20:26:40.220Z,5.70
2018-06-13T20:29:13.955Z,5.90
2018-06-13T20:31:44.177Z,5.97
2018-06-13T20:34:12.501Z,5.87
2018-06-13T20:36:40.871Z,6.33
2018-06-13T20:39:09.939Z,7.40
2018-06-13T20:41:38.857Z,7.27
2018-06-13T20:44:07.520Z,6.47
2018-06-13T20:46:36.272Z,6.27
2018-06-13T20:49:04.914Z,6.10
2018-06-13T20:51:33.364Z,6.27
2018-06-13T20:54:01.669Z,6.40
2018-06-13T20:56:30.453Z,6.43
2018-06-13T20:58:58.756Z,6.90
2018-06-13T21:01:27.524Z,5.70
2018-06-13T21:03:56.013Z,5.70
2018-06-13T21:06:24.466Z,6.30
2018-06-13T21:08:52.800Z,6.20
2018-06-13T21:11:21.345Z,5.90
2018-06-13T21:13:49.732Z,6.23
2018-06-13T21:16:18.100Z,6.50
2018-06-13T21:18:46.696Z,5.93
2018-06-13T21:21:15.051Z,6.13
2018-06-13T21:23:43.892Z,6.00
2018-06-13T21:26:12.245Z,5.97
2018-06-13T21:28:40.640Z,5.23
2018-06-13T21:31:09.303Z,5.80
2018-06-13T21:33:37.596Z,5.60
2018-06-13T21:36:05.912Z,5.50
2018-06-13T21:38:34.275Z,5.60
2018-06-13T21:41:02.596Z,5.33
2018-06-13T21:43:31.065Z,5.13
2018-06-13T21:45:59.364Z,4.90
2018-06-13T21:48:27.868Z,5.27
2018-06-13T21:50:56.751Z,5.33
2018-06-13T21:53:25.284Z,5.37
2018-06-13T21:55:53.651Z,5.53
2018-06-13T21:58:22.603Z,4.83
2018-06-13T22:00:51.325Z,5.43
2018-06-13T22:03:20.320Z,4.80
2018-06-13T22:05:49.313Z,4.73
2018-06-13T22:08:18.257Z,5.13
2018-06-13T22:10:47.012Z,5.70
2018-06-13T22:13:15.656Z,5.77
2018-06-13T22:15:44.340Z,5.87
2018-06-13T22:18:12.819Z,5.13
2018-06-13T22:20:41.692Z,4.80
2018-06-13T22:23:10.125Z,4.80
2018-06-13T22:25:39.185Z,4.60
2018-06-13T22:28:08.076Z,4.03
2018-06-13T22:30:36.740Z,4.47
2018-06-13T22:33:05.473Z,4.20
2018-06-13T22:35:34.143Z,4.37
2018-06-13T22:38:03.528Z,4.40
2018-06-13T22:40:32.480Z,4.60
2018-06-13T22:43:00.917Z,3.90
2018-06-13T22:45:29.532Z,3.60
2018-06-13T22:47:57.860Z,4.17
2018-06-13T22:50:26.263Z,3.70
2018-06-13T22:52:54.688Z,3.80
2018-06-13T22:55:23.652Z,3.90
2018-06-13T22:57:52.336Z,3.43
2018-06-13T23:01:23.976Z,3.87
2018-06-13T23:03:52.500Z,3.40
2018-06-13T23:06:21.661Z,3.70
2018-06-13T23:08:50.665Z,3.40
2018-06-13T23:11:19.363Z,3.17
2018-06-13T23:13:47.820Z,3.23
2018-06-13T23:16:16.825Z,3.20
2018-06-13T23:18:45.784Z,2.97
2018-06-13T23:21:14.480Z,2.90
2018-06-13T23:23:43.423Z,2.90
2018-06-13T23:26:12.152Z,2.90
2018-06-13T23:28:41.102Z,2.67
2018-06-13T23:31:09.783Z,2.67
2018-06-13T23:33:38.557Z,2.93
2018-06-13T23:36:07.474Z,2.80
2018-06-13T23:38:36.202Z,2.57
2018-06-13T23:41:04.564Z,2.40
2018-06-13T23:43:33.595Z,2.67
2018-06-13T23:46:02.487Z,2.70
2018-06-13T23:48:30.792Z,2.40
2018-06-13T23:50:59.293Z,2.80
2018-06-13T23:53:28.240Z,2.50
2018-06-13T23:55:56.936Z,2.30
2018-06-13T23:58:25.664Z,2.20
